Time;durP1;ratioP1;P1;durP2;ratioP2;P2;SDS_P1;SDS_P2;PMS_P1;PMS_P2;Temp;Humidity;BMP_temperature;BMP_pressure;BME280_temperature;BME280_humidity;BME280_pressure;Samples;Min_cycle;Max_cycle;Signal;HPM_P1;HPM_P2
2022/10/16 00:00:01;;;;;;;3.22;1.33;;;;;;;;;;5005651;28;20038;-92
2022/10/16 00:02:27;;;;;;;12.90;2.58;;;;;;;;;;4999462;28;20060;-91
2022/10/16 00:04:54;;;;;;;5.28;1.73;;;;;;;;;;5000247;28;20496;-92
2022/10/16 00:07:20;;;;;;;7.68;1.48;;;;;;;;;;4988263;28;20044;-92
2022/10/16 00:09:46;;;;;;;12.30;1.75;;;;;;;;;;4985817;28;20125;-92
2022/10/16 00:12:12;;;;;;;6.45;1.95;;;;;;;;;;4983696;28;20057;-90
2022/10/16 00:14:41;;;;;;;5.40;2.35;;;;;;;;;;5002461;28;20470;-91
2022/10/16 00:17:07;;;;;;;7.13;2.45;;;;;;;;;;5021608;28;20030;-92
2022/10/16 00:19:33;;;;;;;11.32;1.38;;;;;;;;;;5005002;28;20093;-92
2022/10/16 00:21:59;;;;;;;4.85;1.63;;;;;;;;;;5002776;28;20579;-93
2022/10/16 00:24:25;;;;;;;10.23;1.80;;;;;;;;;;5004369;28;20036;-92
2022/10/16 00:26:51;;;;;;;4.60;2.17;;;;;;;;;;4990963;28;20072;-92
2022/10/16 00:29:17;;;;;;;7.47;2.00;;;;;;;;;;5006611;28;20100;-92
2022/10/16 00:31:44;;;;;;;6.95;2.55;;;;;;;;;;4988640;28;20065;-93
2022/10/16 00:34:10;;;;;;;5.70;1.67;;;;;;;;;;4993873;28;20916;-93
2022/10/16 00:36:36;;;;;;;13.00;2.10;;;;;;;;;;5004222;28;20038;-93
2022/10/16 00:39:02;;;;;;;2.42;1.50;;;;;;;;;;5007172;28;21837;-93
2022/10/16 00:41:28;;;;;;;11.30;2.00;;;;;;;;;;5002581;28;20037;-92
2022/10/16 00:43:56;;;;;;;7.00;1.75;;;;;;;;;;4992836;28;20049;-92
2022/10/16 00:46:37;;;;;;;30.02;2.30;;;;;;;;;;5000440;28;20030;-92
2022/10/16 00:49:14;;;;;;;7.28;1.63;;;;;;;;;;5002753;28;21072;-92
2022/10/16 00:51:44;;;;;;;5.38;1.50;;;;;;;;;;5004096;28;20033;-93
2022/10/16 00:54:30;;;;;;;9.85;1.83;;;;;;;;;;5002931;28;20046;-92
2022/10/16 00:57:00;;;;;;;3.42;1.80;;;;;;;;;;5004256;28;20038;-92
2022/10/16 00:59:29;;;;;;;9.27;1.70;;;;;;;;;;5022087;28;20018;-92
2022/10/16 01:01:56;;;;;;;7.00;1.65;;;;;;;;;;5014186;28;20033;-92
2022/10/16 01:04:31;;;;;;;11.77;1.60;;;;;;;;;;5007169;28;20193;-91
2022/10/16 01:07:10;;;;;;;9.02;1.90;;;;;;;;;;5000378;28;20116;-92
2022/10/16 01:09:45;;;;;;;6.28;1.75;;;;;;;;;;5000058;28;20087;-92
2022/10/16 01:12:15;;;;;;;5.65;1.90;;;;;;;;;;5021042;28;20133;-91
2022/10/16 01:15:01;;;;;;;2.92;1.50;;;;;;;;;;4994003;28;20437;-92
2022/10/16 01:17:36;;;;;;;9.20;1.70;;;;;;;;;;4993386;28;20125;-92
2022/10/16 01:20:06;;;;;;;4.43;1.30;;;;;;;;;;5004240;28;20046;-92
2022/10/16 01:22:40;;;;;;;3.47;1.52;;;;;;;;;;5006215;28;20080;-92
2022/10/16 01:25:08;;;;;;;4.60;1.05;;;;;;;;;;5004701;28;20037;-92
2022/10/16 01:27:36;;;;;;;6.25;1.60;;;;;;;;;;5006190;28;20442;-92
2022/10/16 01:30:09;;;;;;;6.03;1.25;;;;;;;;;;4998236;28;20068;-92
2022/10/16 01:32:40;;;;;;;9.88;1.55;;;;;;;;;;5022273;28;20041;-92
2022/10/16 01:35:12;;;;;;;5.75;1.77;;;;;;;;;;5003435;28;20080;-92
2022/10/16 01:37:41;;;;;;;7.18;1.77;;;;;;;;;;5001038;28;20038;-92
2022/10/16 01:40:12;;;;;;;5.90;1.60;;;;;;;;;;5020902;28;20508;-92
2022/10/16 01:42:42;;;;;;;8.65;1.25;;;;;;;;;;4998459;28;20038;-92
2022/10/16 01:45:11;;;;;;;9.43;1.98;;;;;;;;;;5001105;28;20049;-92
2022/10/16 01:47:38;;;;;;;8.73;1.95;;;;;;;;;;4999640;28;20576;-91
2022/10/16 01:50:05;;;;;;;3.67;0.80;;;;;;;;;;5002009;28;20034;-91
2022/10/16 01:52:32;;;;;;;11.73;1.77;;;;;;;;;;5021367;28;20453;-92
2022/10/16 01:54:59;;;;;;;6.13;1.48;;;;;;;;;;4998825;28;20026;-92
2022/10/16 01:57:27;;;;;;;4.60;1.60;;;;;;;;;;5015509;28;20071;-92
2022/10/16 01:59:55;;;;;;;4.18;1.42;;;;;;;;;;4999033;28;20129;-92
2022/10/16 02:02:29;;;;;;;2.55;1.35;;;;;;;;;;4996899;28;20084;-92
2022/10/16 02:04:59;;;;;;;11.32;1.60;;;;;;;;;;4999646;28;20033;-93
2022/10/16 02:07:25;;;;;;;7.38;2.00;;;;;;;;;;5003136;28;20022;-92
2022/10/16 02:09:51;;;;;;;7.20;1.70;;;;;;;;;;4986603;28;20124;-93
2022/10/16 02:12:32;;;;;;;4.10;1.55;;;;;;;;;;4995289;28;20738;-93
2022/10/16 02:14:59;;;;;;;2.65;1.55;;;;;;;;;;4997624;28;20613;-92
2022/10/16 02:17:25;;;;;;;3.33;1.50;;;;;;;;;;4990091;28;20037;-93
2022/10/16 02:19:52;;;;;;;5.68;1.50;;;;;;;;;;5002360;28;20022;-92
2022/10/16 02:22:22;;;;;;;6.85;2.10;;;;;;;;;;5002918;28;20029;-93
2022/10/16 02:24:57;;;;;;;7.90;1.80;;;;;;;;;;4999936;28;20101;-92
2022/10/16 02:27:26;;;;;;;5.32;2.13;;;;;;;;;;5000305;28;20049;-92
2022/10/16 02:29:59;;;;;;;4.72;1.63;;;;;;;;;;5000165;28;20034;-93
2022/10/16 02:32:30;;;;;;;6.72;2.10;;;;;;;;;;5004464;28;20029;-93
2022/10/16 02:34:56;;;;;;;4.40;1.95;;;;;;;;;;5018188;28;20037;-92
2022/10/16 02:37:22;;;;;;;8.30;1.70;;;;;;;;;;4998892;28;20038;-92
2022/10/16 02:39:49;;;;;;;6.10;1.67;;;;;;;;;;5020471;28;20021;-92
2022/10/16 02:42:15;;;;;;;5.45;2.08;;;;;;;;;;4989137;28;20439;-93
2022/10/16 02:44:41;;;;;;;8.02;1.48;;;;;;;;;;4990308;28;20029;-93
2022/10/16 02:47:07;;;;;;;9.05;1.67;;;;;;;;;;4989126;28;20038;-93
2022/10/16 02:49:33;;;;;;;6.57;1.55;;;;;;;;;;5006809;28;20022;-92
2022/10/16 02:51:59;;;;;;;5.88;2.65;;;;;;;;;;5000561;28;20886;-91
2022/10/16 02:54:25;;;;;;;3.40;1.50;;;;;;;;;;4986283;28;20060;-93
2022/10/16 02:56:51;;;;;;;6.72;2.22;;;;;;;;;;4988649;28;20034;-93
2022/10/16 02:59:17;;;;;;;6.78;1.75;;;;;;;;;;4986081;28;20030;-92
2022/10/16 03:01:43;;;;;;;2.67;1.30;;;;;;;;;;5020375;28;20569;-92
2022/10/16 03:04:09;;;;;;;8.93;1.83;;;;;;;;;;4989966;28;20053;-92
2022/10/16 03:06:35;;;;;;;3.00;1.38;;;;;;;;;;5002445;28;20533;-92
2022/10/16 03:09:01;;;;;;;5.25;1.52;;;;;;;;;;5000782;28;20076;-91
2022/10/16 03:11:28;;;;;;;2.53;1.17;;;;;;;;;;5000405;28;20065;-91
2022/10/16 03:13:54;;;;;;;7.13;1.75;;;;;;;;;;5003912;28;20033;-92
2022/10/16 03:16:20;;;;;;;6.50;1.83;;;;;;;;;;4987808;28;20041;-92
2022/10/16 03:18:49;;;;;;;4.00;1.42;;;;;;;;;;5001613;28;20053;-91
2022/10/16 03:21:15;;;;;;;4.20;1.20;;;;;;;;;;5005823;28;20060;-92
2022/10/16 03:23:41;;;;;;;3.50;1.67;;;;;;;;;;4989602;28;20121;-92
2022/10/16 03:26:07;;;;;;;9.80;1.70;;;;;;;;;;5006669;28;20049;-91
2022/10/16 03:28:33;;;;;;;3.53;1.77;;;;;;;;;;5002684;28;20071;-92
2022/10/16 03:30:59;;;;;;;2.08;1.00;;;;;;;;;;5001615;28;20375;-92
2022/10/16 03:33:25;;;;;;;5.32;1.65;;;;;;;;;;4984127;28;20056;-92
2022/10/16 03:35:54;;;;;;;7.57;1.67;;;;;;;;;;5002388;28;20069;-92
2022/10/16 03:38:21;;;;;;;4.18;1.75;;;;;;;;;;5016007;28;20073;-92
2022/10/16 03:40:48;;;;;;;4.55;1.30;;;;;;;;;;5001261;28;20038;-92
2022/10/16 03:43:17;;;;;;;4.03;1.52;;;;;;;;;;5002359;28;20026;-92
2022/10/16 03:45:43;;;;;;;5.50;1.92;;;;;;;;;;5003472;28;20045;-92
2022/10/16 03:48:09;;;;;;;4.15;1.58;;;;;;;;;;4998353;28;20541;-92
2022/10/16 03:50:35;;;;;;;5.47;1.40;;;;;;;;;;4985661;28;20149;-92
2022/10/16 03:53:01;;;;;;;5.85;1.75;;;;;;;;;;4986034;28;20135;-92
2022/10/16 03:55:27;;;;;;;3.72;2.25;;;;;;;;;;4989208;28;20128;-92
2022/10/16 03:57:53;;;;;;;2.38;1.77;;;;;;;;;;5002318;28;20049;-91
2022/10/16 04:00:19;;;;;;;5.70;1.80;;;;;;;;;;4986841;28;20038;-92
2022/10/16 04:02:45;;;;;;;4.88;1.15;;;;;;;;;;4987046;28;20069;-93
2022/10/16 04:05:11;;;;;;;3.88;1.40;;;;;;;;;;4987230;28;20085;-92
2022/10/16 04:07:37;;;;;;;2.15;1.55;;;;;;;;;;4991851;28;20055;-92
2022/10/16 04:10:04;;;;;;;6.80;1.60;;;;;;;;;;4988701;28;20588;-92
2022/10/16 04:12:30;;;;;;;5.05;1.95;;;;;;;;;;4982391;28;20115;-92
2022/10/16 04:14:56;;;;;;;5.97;1.55;;;;;;;;;;4987418;28;20026;-93
2022/10/16 04:17:22;;;;;;;1.50;1.25;;;;;;;;;;5017454;28;20791;-93
2022/10/16 04:19:48;;;;;;;4.95;1.77;;;;;;;;;;5001916;28;20116;-92
2022/10/16 04:22:14;;;;;;;5.10;2.17;;;;;;;;;;5016154;28;20165;-90
2022/10/16 04:24:40;;;;;;;9.68;1.90;;;;;;;;;;5005900;28;20465;-91
2022/10/16 04:27:06;;;;;;;8.80;2.63;;;;;;;;;;5003702;28;20954;-88
2022/10/16 04:29:32;;;;;;;5.13;1.50;;;;;;;;;;5002702;28;20501;-93
2022/10/16 04:31:58;;;;;;;4.00;2.00;;;;;;;;;;4986475;28;20034;-93
2022/10/16 04:34:24;;;;;;;4.95;2.30;;;;;;;;;;4988536;28;20485;-92
2022/10/16 04:36:50;;;;;;;8.75;1.48;;;;;;;;;;5001933;28;20034;-92
2022/10/16 04:39:16;;;;;;;3.30;1.45;;;;;;;;;;4989172;28;20026;-92
2022/10/16 04:41:43;;;;;;;5.75;1.50;;;;;;;;;;5004603;28;20029;-92
2022/10/16 04:44:09;;;;;;;4.95;1.48;;;;;;;;;;5001553;28;20785;-91
2022/10/16 04:46:35;;;;;;;2.45;1.25;;;;;;;;;;5000651;28;20065;-93
2022/10/16 04:49:01;;;;;;;4.07;1.80;;;;;;;;;;5000182;28;20034;-91
2022/10/16 04:51:27;;;;;;;4.43;1.35;;;;;;;;;;4986057;28;20126;-92
2022/10/16 04:53:54;;;;;;;3.55;1.60;;;;;;;;;;4983381;28;20371;-92
2022/10/16 04:56:21;;;;;;;4.35;1.90;;;;;;;;;;4997476;28;20117;-92
2022/10/16 04:58:47;;;;;;;10.32;2.00;;;;;;;;;;5002349;28;20034;-92
2022/10/16 05:01:13;;;;;;;4.03;1.92;;;;;;;;;;5000186;28;20037;-92
2022/10/16 05:03:39;;;;;;;4.50;1.60;;;;;;;;;;4997163;28;20054;-92
2022/10/16 05:06:06;;;;;;;2.45;1.35;;;;;;;;;;5003523;28;20041;-94
2022/10/16 05:08:32;;;;;;;3.72;1.55;;;;;;;;;;4982106;28;20113;-94
2022/10/16 05:10:58;;;;;;;4.55;1.73;;;;;;;;;;4983480;28;20049;-94
2022/10/16 05:13:24;;;;;;;2.15;1.13;;;;;;;;;;4981302;28;20366;-94
2022/10/16 05:15:50;;;;;;;4.45;1.77;;;;;;;;;;4999363;28;20030;-93
2022/10/16 05:18:16;;;;;;;3.15;0.95;;;;;;;;;;4996944;28;20029;-94
2022/10/16 05:20:42;;;;;;;3.40;1.75;;;;;;;;;;5013125;28;20065;-93
2022/10/16 05:23:10;;;;;;;7.28;1.73;;;;;;;;;;4983164;28;20131;-93
2022/10/16 05:25:36;;;;;;;8.43;2.67;;;;;;;;;;5000156;28;20293;-93
2022/10/16 05:28:02;;;;;;;5.60;1.85;;;;;;;;;;4984301;28;20493;-93
2022/10/16 05:30:28;;;;;;;10.48;2.13;;;;;;;;;;5017475;28;20405;-93
2022/10/16 05:32:54;;;;;;;4.90;1.77;;;;;;;;;;4988497;28;20452;-93
2022/10/16 05:35:21;;;;;;;4.65;1.30;;;;;;;;;;4997650;28;20121;-94
2022/10/16 05:37:47;;;;;;;6.03;2.17;;;;;;;;;;5000099;28;20030;-93
2022/10/16 05:40:13;;;;;;;6.80;2.05;;;;;;;;;;4987223;28;22015;-93
2022/10/16 05:42:40;;;;;;;3.05;1.73;;;;;;;;;;5000169;28;20041;-93
2022/10/16 05:45:07;;;;;;;5.68;2.08;;;;;;;;;;5015769;28;20089;-93
2022/10/16 05:47:33;;;;;;;8.50;1.85;;;;;;;;;;5012630;28;20030;-92
2022/10/16 05:49:59;;;;;;;5.63;2.22;;;;;;;;;;4999711;28;20069;-93
2022/10/16 05:52:25;;;;;;;6.30;2.13;;;;;;;;;;4990522;28;20033;-93
2022/10/16 05:54:51;;;;;;;11.23;2.00;;;;;;;;;;4990201;28;20060;-93
2022/10/16 05:57:17;;;;;;;7.55;1.83;;;;;;;;;;4984275;28;20860;-93
2022/10/16 05:59:46;;;;;;;10.77;2.15;;;;;;;;;;5000001;28;20454;-92
2022/10/16 06:02:15;;;;;;;5.35;2.47;;;;;;;;;;4995916;28;20042;-93
2022/10/16 06:04:41;;;;;;;7.35;1.80;;;;;;;;;;4983988;28;20050;-94
2022/10/16 06:07:07;;;;;;;7.10;2.13;;;;;;;;;;4985661;28;20049;-93
2022/10/16 06:09:33;;;;;;;6.50;1.90;;;;;;;;;;4980494;28;20033;-94
2022/10/16 06:11:59;;;;;;;1.92;1.55;;;;;;;;;;4984739;28;20044;-93
2022/10/16 06:14:31;;;;;;;14.23;3.20;;;;;;;;;;5007167;28;20030;-93
2022/10/16 06:16:57;;;;;;;16.73;3.95;;;;;;;;;;5003093;28;20073;-93
2022/10/16 06:19:26;;;;;;;9.60;3.05;;;;;;;;;;5005822;28;20362;-93
2022/10/16 06:21:52;;;;;;;7.15;3.03;;;;;;;;;;5001848;28;20038;-92
2022/10/16 06:24:18;;;;;;;7.13;1.75;;;;;;;;;;5004751;28;20126;-92
2022/10/16 06:26:44;;;;;;;8.02;2.25;;;;;;;;;;5000262;28;20045;-93
2022/10/16 06:29:10;;;;;;;6.00;2.53;;;;;;;;;;5004644;28;20508;-92
2022/10/16 06:31:36;;;;;;;3.75;2.50;;;;;;;;;;4988899;28;20058;-92
2022/10/16 06:34:04;;;;;;;3.67;1.98;;;;;;;;;;4985460;28;20471;-93
2022/10/16 06:36:30;;;;;;;7.35;2.78;;;;;;;;;;5005530;28;20042;-93
2022/10/16 06:38:57;;;;;;;2.60;1.67;;;;;;;;;;5025552;28;20113;-93
2022/10/16 06:41:23;;;;;;;9.88;2.00;;;;;;;;;;5016048;28;20098;-92
2022/10/16 06:43:49;;;;;;;3.60;1.90;;;;;;;;;;5021917;28;20058;-93
2022/10/16 06:46:17;;;;;;;5.07;2.42;;;;;;;;;;5005644;28;20038;-94
2022/10/16 06:48:43;;;;;;;3.22;2.03;;;;;;;;;;5021197;28;20084;-93
2022/10/16 06:51:10;;;;;;;5.05;2.45;;;;;;;;;;5002984;28;20034;-93
2022/10/16 06:53:38;;;;;;;7.38;2.40;;;;;;;;;;5015238;28;20137;-93
2022/10/16 06:56:11;;;;;;;6.45;1.80;;;;;;;;;;5017254;28;20029;-94
2022/10/16 06:58:37;;;;;;;3.38;2.17;;;;;;;;;;5006153;28;20133;-94
2022/10/16 07:01:04;;;;;;;8.77;2.95;;;;;;;;;;5002308;28;20038;-93
2022/10/16 07:03:30;;;;;;;4.13;1.60;;;;;;;;;;5007070;28;20040;-94
2022/10/16 07:05:56;;;;;;;3.47;1.58;;;;;;;;;;5020629;28;20540;-93
2022/10/16 07:08:22;;;;;;;17.45;4.00;;;;;;;;;;4989032;28;20033;-95
2022/10/16 07:10:48;;;;;;;5.95;2.20;;;;;;;;;;4995467;28;20061;-94
2022/10/16 07:13:15;;;;;;;9.43;2.63;;;;;;;;;;5007591;28;20069;-93
2022/10/16 07:15:48;;;;;;;3.53;1.77;;;;;;;;;;5023187;28;20025;-93
2022/10/16 07:18:15;;;;;;;5.35;2.10;;;;;;;;;;5019645;28;20041;-88
2022/10/16 07:20:41;;;;;;;3.20;1.65;;;;;;;;;;5022025;28;20485;-93
2022/10/16 07:23:07;;;;;;;5.88;1.58;;;;;;;;;;5003296;28;20079;-93
2022/10/16 07:25:33;;;;;;;4.68;1.75;;;;;;;;;;4992251;28;20145;-93
2022/10/16 07:27:59;;;;;;;9.32;2.08;;;;;;;;;;5020466;28;20473;-92
2022/10/16 07:30:32;;;;;;;5.47;2.13;;;;;;;;;;4989776;28;20128;-92
2022/10/16 07:32:58;;;;;;;4.97;1.58;;;;;;;;;;4995852;28;20029;-91
2022/10/16 07:35:24;;;;;;;5.80;2.38;;;;;;;;;;5004856;28;20040;-92
2022/10/16 07:37:50;;;;;;;5.32;1.48;;;;;;;;;;4991558;28;20029;-92
2022/10/16 07:40:16;;;;;;;14.85;2.50;;;;;;;;;;5005902;28;20045;-92
2022/10/16 07:42:42;;;;;;;4.30;1.58;;;;;;;;;;4985703;28;20045;-93
2022/10/16 07:45:08;;;;;;;6.93;1.65;;;;;;;;;;4992979;28;20061;-93
2022/10/16 07:47:34;;;;;;;4.40;1.77;;;;;;;;;;4991766;28;20087;-93
2022/10/16 07:50:00;;;;;;;7.07;2.53;;;;;;;;;;5008876;28;20496;-93
2022/10/16 07:52:26;;;;;;;10.10;2.00;;;;;;;;;;4993308;28;20026;-92
2022/10/16 07:54:52;;;;;;;5.97;1.55;;;;;;;;;;5022394;28;20029;-93
2022/10/16 07:57:19;;;;;;;4.55;2.33;;;;;;;;;;5010046;28;20627;-92
2022/10/16 07:59:46;;;;;;;3.13;1.38;;;;;;;;;;5007703;28;20021;-93
2022/10/16 08:02:13;;;;;;;6.25;1.45;;;;;;;;;;5015289;28;20034;-93
2022/10/16 08:04:39;;;;;;;3.53;2.00;;;;;;;;;;4999400;28;20119;-92
2022/10/16 08:07:05;;;;;;;7.50;1.90;;;;;;;;;;4988437;28;20034;-92
2022/10/16 08:09:31;;;;;;;6.53;1.50;;;;;;;;;;4973171;28;20045;-93
2022/10/16 08:11:57;;;;;;;6.78;2.33;;;;;;;;;;5000356;28;20046;-93
2022/10/16 08:14:23;;;;;;;4.70;1.67;;;;;;;;;;4969089;28;20474;-92
2022/10/16 08:16:49;;;;;;;3.38;1.83;;;;;;;;;;4987002;28;20169;-93
2022/10/16 08:19:15;;;;;;;5.50;2.50;;;;;;;;;;4969092;28;20034;-94
2022/10/16 08:21:41;;;;;;;4.35;1.77;;;;;;;;;;4969596;28;20077;-94
2022/10/16 08:24:08;;;;;;;4.35;2.20;;;;;;;;;;5002683;28;20485;-94
2022/10/16 08:26:34;;;;;;;3.05;1.42;;;;;;;;;;5003416;28;20025;-93
2022/10/16 08:29:00;;;;;;;5.88;2.22;;;;;;;;;;5000841;28;20485;-93
2022/10/16 08:31:27;;;;;;;6.38;2.20;;;;;;;;;;4971737;28;20041;-93
2022/10/16 08:33:53;;;;;;;8.50;2.08;;;;;;;;;;4985254;28;20469;-94
2022/10/16 08:36:19;;;;;;;5.63;1.50;;;;;;;;;;4986795;28;20517;-93
2022/10/16 08:38:48;;;;;;;9.07;2.28;;;;;;;;;;4971906;28;20026;-93
2022/10/16 08:41:31;;;;;;;4.47;1.90;;;;;;;;;;4995661;28;20030;-94
2022/10/16 08:44:16;;;;;;;8.25;3.00;;;;;;;;;;4999183;28;20033;-94
2022/10/16 08:46:48;;;;;;;7.57;2.72;;;;;;;;;;4984142;28;20103;-95
2022/10/16 08:49:14;;;;;;;5.90;2.25;;;;;;;;;;4981377;28;20076;-95
2022/10/16 08:51:42;;;;;;;5.47;2.28;;;;;;;;;;4988696;28;20026;-94
2022/10/16 08:54:52;;;;;;;5.55;1.65;;;;;;;;;;4982209;28;20037;-94
2022/10/16 08:57:19;;;;;;;6.28;1.00;;;;;;;;;;5001607;28;20030;-93
2022/10/16 08:59:49;;;;;;;8.32;2.15;;;;;;;;;;4982125;28;20839;-94
2022/10/16 09:02:24;;;;;;;8.38;2.55;;;;;;;;;;4970418;28;20048;-93
2022/10/16 09:05:01;;;;;;;8.32;1.88;;;;;;;;;;4992886;28;20050;-94
2022/10/16 09:07:30;;;;;;;2.03;1.08;;;;;;;;;;5003899;28;20025;-94
2022/10/16 09:10:11;;;;;;;7.15;2.40;;;;;;;;;;5014135;28;20148;-93
2022/10/16 09:12:42;;;;;;;8.27;1.17;;;;;;;;;;5014029;28;20040;-94
2022/10/16 09:15:08;;;;;;;7.13;1.73;;;;;;;;;;4999742;28;20164;-94
2022/10/16 09:17:37;;;;;;;6.47;2.05;;;;;;;;;;5005638;28;20030;-95
2022/10/16 09:20:22;;;;;;;5.82;1.63;;;;;;;;;;5017309;28;20037;-94
2022/10/16 09:22:48;;;;;;;8.30;1.38;;;;;;;;;;5019785;28;20025;-93
2022/10/16 09:25:15;;;;;;;4.43;0.82;;;;;;;;;;5001160;28;20469;-92
2022/10/16 09:27:42;;;;;;;4.10;1.60;;;;;;;;;;5002001;28;20072;-93
2022/10/16 09:30:13;;;;;;;4.55;1.52;;;;;;;;;;4999305;28;20115;-92
2022/10/16 09:32:39;;;;;;;4.95;1.80;;;;;;;;;;4998339;28;20036;-93
2022/10/16 09:35:11;;;;;;;3.60;1.17;;;;;;;;;;4997148;28;20083;-93
2022/10/16 09:37:37;;;;;;;9.23;1.38;;;;;;;;;;5004252;28;20029;-93
2022/10/16 09:40:07;;;;;;;9.75;2.15;;;;;;;;;;4987854;28;20042;-92
2022/10/16 09:42:40;;;;;;;7.93;2.28;;;;;;;;;;5003812;28;20230;-95
2022/10/16 09:45:21;;;;;;;6.65;2.05;;;;;;;;;;5002508;28;20068;-94
2022/10/16 09:47:50;;;;;;;10.07;2.47;;;;;;;;;;5005146;28;20026;-93
2022/10/16 09:50:48;;;;;;;8.90;2.05;;;;;;;;;;5009528;28;20436;-93
2022/10/16 09:53:18;;;;;;;5.90;2.05;;;;;;;;;;4994484;28;20048;-94
2022/10/16 09:55:51;;;;;;;13.50;2.00;;;;;;;;;;5000830;28;20037;-91
2022/10/16 09:58:18;;;;;;;10.90;2.15;;;;;;;;;;5000422;28;20021;-91
2022/10/16 10:00:50;;;;;;;11.07;2.50;;;;;;;;;;4999852;28;20036;-91
2022/10/16 10:03:29;;;;;;;6.93;2.03;;;;;;;;;;5021757;28;20477;-91
2022/10/16 10:05:55;;;;;;;8.20;2.75;;;;;;;;;;5012814;28;20054;-91
2022/10/16 10:15:24;;;;;;;;;;;;;;;;;;;;;
2022/10/16 10:28:54;;;;;;;;;;;;;;;;;;;;;
2022/10/16 10:34:59;;;;;;;;;;;;;;;;;;;;;
2022/10/16 10:53:33;;;;;;;;;;;;;;;;;;;;;
2022/10/16 11:08:47;;;;;;;10.73;2.20;;;;;;;;;;5026583;28;20052;-94
2022/10/16 11:11:40;;;;;;;8.57;2.88;;;;;;;;;;4993970;28;20103;-94
2022/10/16 11:14:31;;;;;;;12.77;2.80;;;;;;;;;;5003577;28;20563;-94
2022/10/16 11:23:42;;;;;;;9.55;2.88;;;;;;;;;;5022595;28;20095;-94
2022/10/16 11:29:31;;;;;;;7.20;2.97;;;;;;;;;;5020804;28;20041;-94
2022/10/16 11:32:21;;;;;;;8.73;2.13;;;;;;;;;;5000673;28;20044;-94
2022/10/16 11:34:55;;;;;;;10.23;2.90;;;;;;;;;;4984197;28;20485;-94
2022/10/16 11:37:49;;;;;;;;;;;;;;;;;;;;;
2022/10/16 11:53:54;;;;;;;;;;;;;;;;;;;;;
2022/10/16 12:00:01;;;;;;;;;;;;;;;;;;;;;
2022/10/16 12:05:59;;;;;;;;;;;;;;;;;;;;;
2022/10/16 12:09:14;;;;;;;;;;;;;;;;;;;;;
2022/10/16 12:15:31;;;;;;;11.85;2.22;;;;;;;;;;4924309;29;20032;-94
2022/10/16 12:24:07;;;;;;;5.50;1.77;;;;;;;;;;4917038;29;20687;-95
2022/10/16 12:42:22;;;;;;;9.50;2.28;;;;;;;;;;4922332;29;20048;-94
2022/10/16 12:44:54;;;;;;;14.32;2.25;;;;;;;;;;4936369;29;20499;-92
2022/10/16 12:47:35;;;;;;;15.07;2.63;;;;;;;;;;4993000;28;20682;-93
2022/10/16 12:50:02;;;;;;;18.48;3.85;;;;;;;;;;4996779;28;20088;-92
2022/10/16 12:52:35;;;;;;;24.98;3.83;;;;;;;;;;4995172;28;20037;-92
2022/10/16 12:55:01;;;;;;;18.50;2.08;;;;;;;;;;4998740;28;20032;-92
2022/10/16 12:57:43;;;;;;;6.20;1.70;;;;;;;;;;4983109;28;20372;-92
2022/10/16 13:00:39;;;;;;;5.63;1.63;;;;;;;;;;5001931;28;20033;-92
2022/10/16 15:12:43;;;;;;;15.35;2.75;;;;;;;;;;4956655;26;20039;-92
2022/10/16 15:15:29;;;;;;;12.45;2.63;;;;;;;;;;4923188;28;20034;-91
2022/10/16 15:17:56;;;;;;;;;;;;;;;;;;4929479;28;20035;-90
2022/10/16 15:20:23;;;;;;;12.65;2.05;;;;;;;;;;4938944;28;20267;-92
2022/10/16 15:22:49;;;;;;;18.08;2.72;;;;;;;;;;4929802;28;20038;-92
2022/10/16 15:25:35;;;;;;;6.53;1.92;;;;;;;;;;4924734;28;20050;-92
2022/10/16 15:28:01;;;;;;;;;;;;;;;;;;4927467;28;20035;-92
2022/10/16 15:30:27;;;;;;;16.92;2.53;;;;;;;;;;4945621;28;19925;-91
2022/10/16 15:32:54;;;;;;;17.42;2.63;;;;;;;;;;4941256;28;20603;-91
2022/10/16 15:35:35;;;;;;;7.30;2.28;;;;;;;;;;4941570;28;20061;-92
2022/10/16 15:38:04;;;;;;;13.43;2.20;;;;;;;;;;4962787;28;20054;-91
2022/10/16 15:40:33;;;;;;;16.73;2.72;;;;;;;;;;4947842;28;20023;-92
2022/10/16 15:43:01;;;;;;;8.43;2.10;;;;;;;;;;4942283;28;20138;-92
2022/10/16 15:45:28;;;;;;;10.75;2.60;;;;;;;;;;4924982;28;20379;-92
2022/10/16 15:47:54;;;;;;;12.15;1.88;;;;;;;;;;4926117;28;20058;-92
2022/10/16 15:50:25;;;;;;;11.65;2.45;;;;;;;;;;4922490;28;20053;-91
2022/10/16 15:53:04;;;;;;;8.27;3.13;;;;;;;;;;4947985;28;20053;-92
2022/10/16 15:55:40;;;;;;;15.70;2.58;;;;;;;;;;4928651;28;20474;-91
2022/10/16 15:58:06;;;;;;;11.65;2.90;;;;;;;;;;4947321;28;20041;-92
2022/10/16 16:00:32;;;;;;;12.00;2.30;;;;;;;;;;4929492;28;20042;-91
2022/10/16 16:02:58;;;;;;;14.77;2.63;;;;;;;;;;4944841;28;20038;-92
2022/10/16 16:05:24;;;;;;;16.10;3.42;;;;;;;;;;4927603;28;20018;-91
2022/10/16 16:07:52;;;;;;;10.15;2.22;;;;;;;;;;4958596;28;20498;-91
2022/10/16 16:10:20;;;;;;;13.68;2.90;;;;;;;;;;4930902;28;20030;-91
2022/10/16 16:12:51;;;;;;;14.05;2.13;;;;;;;;;;4957314;28;20047;-91
2022/10/16 16:15:18;;;;;;;10.95;2.17;;;;;;;;;;4941739;28;20026;-91
2022/10/16 16:17:44;;;;;;;15.45;2.55;;;;;;;;;;4924742;28;20040;-91
2022/10/16 16:20:10;;;;;;;11.88;2.70;;;;;;;;;;4925247;28;20039;-91
2022/10/16 16:22:36;;;;;;;21.33;2.28;;;;;;;;;;4945135;28;20035;-91
2022/10/16 16:25:02;;;;;;;12.40;1.92;;;;;;;;;;4928383;29;20102;-92
2022/10/16 16:27:29;;;;;;;9.18;2.47;;;;;;;;;;4941266;28;20042;-92
2022/10/16 16:29:56;;;;;;;13.20;2.50;;;;;;;;;;4934233;28;20117;-92
2022/10/16 16:32:22;;;;;;;19.38;2.45;;;;;;;;;;4923289;28;20050;-91
2022/10/16 16:34:48;;;;;;;10.60;2.47;;;;;;;;;;4926784;28;20055;-92
2022/10/16 16:37:14;;;;;;;22.40;3.08;;;;;;;;;;4940830;28;20513;-91
2022/10/16 16:39:40;;;;;;;17.20;3.38;;;;;;;;;;4943452;28;20572;-91
2022/10/16 16:42:07;;;;;;;22.05;2.85;;;;;;;;;;4925512;28;20162;-91
2022/10/16 16:44:35;;;;;;;11.50;2.53;;;;;;;;;;4942812;28;20058;-91
2022/10/16 16:47:02;;;;;;;12.93;2.92;;;;;;;;;;4951689;28;20054;-91
2022/10/16 16:49:28;;;;;;;16.10;2.97;;;;;;;;;;4941146;28;20374;-91
2022/10/16 16:51:54;;;;;;;22.58;4.90;;;;;;;;;;4920661;28;20447;-92
2022/10/16 16:54:20;;;;;;;16.23;2.88;;;;;;;;;;4920468;29;20538;-92
2022/10/16 16:56:46;;;;;;;14.10;2.28;;;;;;;;;;4938381;28;20042;-92
2022/10/16 16:59:14;;;;;;;13.68;2.33;;;;;;;;;;4914517;28;20485;-91
2022/10/16 17:01:40;;;;;;;14.55;2.63;;;;;;;;;;4928616;28;20027;-90
2022/10/16 17:04:07;;;;;;;13.48;3.35;;;;;;;;;;4921892;28;20038;-93
2022/10/16 17:06:33;;;;;;;15.00;2.90;;;;;;;;;;4930491;28;20132;-91
2022/10/16 17:09:03;;;;;;;21.65;3.38;;;;;;;;;;4912734;28;20090;-94
2022/10/16 17:11:29;;;;;;;16.65;2.50;;;;;;;;;;4933088;28;20043;-92
2022/10/16 17:14:01;;;;;;;12.88;2.22;;;;;;;;;;4909836;29;20564;-91
2022/10/16 17:16:39;;;;;;;12.00;2.55;;;;;;;;;;4894871;29;20127;-92
2022/10/16 17:19:09;;;;;;;14.82;2.97;;;;;;;;;;4896005;29;20040;-91
2022/10/16 17:21:35;;;;;;;13.55;2.40;;;;;;;;;;4926345;29;20040;-92
2022/10/16 17:24:04;;;;;;;21.77;3.22;;;;;;;;;;4911830;29;20040;-91
2022/10/16 17:26:37;;;;;;;15.13;3.28;;;;;;;;;;4889717;29;20067;-93
2022/10/16 17:29:05;;;;;;;19.17;3.65;;;;;;;;;;4884934;29;20052;-92
2022/10/16 17:31:33;;;;;;;13.75;4.78;;;;;;;;;;4904796;29;20052;-92
2022/10/16 17:34:00;;;;;;;16.73;4.25;;;;;;;;;;4920313;29;20130;-92
2022/10/16 17:36:29;;;;;;;15.43;3.42;;;;;;;;;;4900811;29;20788;-91
2022/10/16 17:39:00;;;;;;;18.55;2.90;;;;;;;;;;4902441;29;20559;-91
2022/10/16 17:41:29;;;;;;;20.63;3.10;;;;;;;;;;4901625;29;20578;-91
2022/10/16 17:43:56;;;;;;;17.33;3.03;;;;;;;;;;4904660;28;20032;-91
2022/10/16 17:46:25;;;;;;;16.33;3.20;;;;;;;;;;4940994;28;20547;-92
2022/10/16 17:48:55;;;;;;;14.40;2.83;;;;;;;;;;4939424;28;20794;-90
2022/10/16 17:51:24;;;;;;;16.25;2.90;;;;;;;;;;4939487;28;20056;-92
2022/10/16 17:53:57;;;;;;;16.23;3.60;;;;;;;;;;4934470;28;20486;-91
2022/10/16 17:56:24;;;;;;;17.50;3.63;;;;;;;;;;4937619;28;20031;-92
2022/10/16 17:58:51;;;;;;;9.82;2.95;;;;;;;;;;4914513;28;20032;-92
2022/10/16 18:01:18;;;;;;;20.35;3.35;;;;;;;;;;4937822;28;20035;-91
2022/10/16 18:03:56;;;;;;;13.00;3.15;;;;;;;;;;4950513;28;20036;-92
2022/10/16 18:06:22;;;;;;;16.60;3.60;;;;;;;;;;4935744;28;20544;-92
2022/10/16 18:08:49;;;;;;;19.75;3.40;;;;;;;;;;4942464;28;20340;-91
2022/10/16 18:11:15;;;;;;;20.08;3.10;;;;;;;;;;4927516;28;20061;-92
2022/10/16 18:13:41;;;;;;;12.35;3.42;;;;;;;;;;4942115;28;20035;-92
2022/10/16 18:16:12;;;;;;;14.68;2.80;;;;;;;;;;4922538;28;20036;-91
2022/10/16 18:18:39;;;;;;;26.65;3.58;;;;;;;;;;4940786;28;20033;-92
2022/10/16 18:21:06;;;;;;;20.80;4.38;;;;;;;;;;4940981;28;20063;-92
2022/10/16 18:23:33;;;;;;;10.35;2.85;;;;;;;;;;4927894;28;20040;-92
2022/10/16 18:25:59;;;;;;;21.30;2.97;;;;;;;;;;4946118;28;21099;-92
2022/10/16 18:28:25;;;;;;;11.48;3.20;;;;;;;;;;4946020;28;20054;-91
2022/10/16 18:30:56;;;;;;;14.52;3.65;;;;;;;;;;4922807;28;20146;-92
2022/10/16 18:33:25;;;;;;;15.93;3.83;;;;;;;;;;4922488;28;20395;-92
2022/10/16 18:35:51;;;;;;;17.25;4.40;;;;;;;;;;4942279;28;20123;-91
2022/10/16 18:38:18;;;;;;;16.42;3.90;;;;;;;;;;4930214;28;20062;-93
2022/10/16 18:40:44;;;;;;;16.05;3.67;;;;;;;;;;4942242;28;20043;-92
2022/10/16 18:43:10;;;;;;;18.88;3.67;;;;;;;;;;4938960;28;20086;-91
2022/10/16 18:45:36;;;;;;;12.15;3.05;;;;;;;;;;4937604;28;20592;-91
2022/10/16 18:48:03;;;;;;;15.95;4.13;;;;;;;;;;4941636;28;20070;-93
2022/10/16 18:50:29;;;;;;;15.63;3.63;;;;;;;;;;4915745;28;20063;-92
2022/10/16 18:52:55;;;;;;;17.13;3.53;;;;;;;;;;4934062;28;20034;-91